Time;durP1;ratioP1;P1;durP2;ratioP2;P2;SDS_P1;SDS_P2;PMS_P1;PMS_P2;Temp;Humidity;BMP_temperature;BMP_pressure;BME280_temperature;BME280_humidity;BME280_pressure;Samples;Min_cycle;Max_cycle;Signal;HPM_P1;HPM_P2
2024/01/18 06:03:49;;;;;;;17.77;9.20;;;;;;;;;;4955512;29;20499;-76
2024/01/18 06:06:15;;;;;;;13.43;7.77;;;;;;;;;;4972257;28;20428;-76
2024/01/18 06:08:41;;;;;;;10.20;6.63;;;;;;;;;;4956890;29;20568;-76
2024/01/18 06:11:07;;;;;;;8.20;4.97;;;;;;;;;;4956597;28;20482;-75
2024/01/18 06:13:34;;;;;;;10.40;5.27;;;;;;;;;;4971845;28;20421;-75
2024/01/18 06:16:00;;;;;;;8.30;4.90;;;;;;;;;;4958118;29;20413;-76
2024/01/18 06:18:26;;;;;;;7.27;5.37;;;;;;;;;;4971308;28;20507;-76
2024/01/18 06:20:51;;;;;;;4.77;3.10;;;;;;;;;;4973713;28;20460;-77
2024/01/18 06:23:17;;;;;;;5.50;4.57;;;;;;;;;;4954839;29;21029;-73
2024/01/18 06:25:43;;;;;;;7.20;5.27;;;;;;;;;;4961449;29;20776;-73
2024/01/18 06:28:10;;;;;;;6.23;4.80;;;;;;;;;;4964516;29;20767;-76
2024/01/18 06:30:43;;;;;;;6.43;3.93;;;;;;;;;;4957031;28;20951;-78
2024/01/18 06:33:09;;;;;;;4.83;3.83;;;;;;;;;;4954969;29;20428;-73
2024/01/18 06:35:35;;;;;;;6.83;3.60;;;;;;;;;;4955951;29;20413;-71
2024/01/18 06:38:01;;;;;;;5.40;3.73;;;;;;;;;;4954754;29;20540;-70
2024/01/18 06:40:27;;;;;;;4.13;3.90;;;;;;;;;;4955313;28;20424;-73
2024/01/18 06:42:52;;;;;;;5.30;3.93;;;;;;;;;;4955899;29;20519;-73
2024/01/18 06:45:18;;;;;;;6.70;4.00;;;;;;;;;;4955315;29;20428;-72
2024/01/18 06:47:44;;;;;;;4.17;3.67;;;;;;;;;;4955650;29;20420;-72
2024/01/18 06:50:13;;;;;;;6.97;4.10;;;;;;;;;;4955511;28;20472;-72
2024/01/18 06:52:39;;;;;;;4.53;3.60;;;;;;;;;;4956231;28;20417;-72
2024/01/18 06:55:06;;;;;;;5.83;3.23;;;;;;;;;;4954030;29;20447;-72
2024/01/18 06:57:32;;;;;;;4.50;3.27;;;;;;;;;;4953742;29;20448;-72
2024/01/18 06:59:58;;;;;;;7.37;3.00;;;;;;;;;;4955407;29;20781;-72
2024/01/18 07:02:24;;;;;;;4.20;3.57;;;;;;;;;;4955366;28;20463;-72
2024/01/18 07:04:50;;;;;;;3.83;3.63;;;;;;;;;;4954210;29;20468;-72
2024/01/18 07:07:16;;;;;;;5.13;3.30;;;;;;;;;;4955184;29;20405;-72
2024/01/18 07:09:41;;;;;;;4.50;3.10;;;;;;;;;;4953955;29;20924;-74
2024/01/18 07:12:07;;;;;;;6.17;4.17;;;;;;;;;;4953620;28;20472;-72
2024/01/18 07:14:33;;;;;;;6.67;3.20;;;;;;;;;;4954841;29;20413;-73
2024/01/18 07:17:00;;;;;;;3.33;3.13;;;;;;;;;;4954780;29;20409;-72
2024/01/18 07:19:26;;;;;;;4.13;2.63;;;;;;;;;;4954755;28;20413;-72
2024/01/18 07:21:53;;;;;;;6.60;2.90;;;;;;;;;;4943483;28;20452;-72
2024/01/18 07:24:19;;;;;;;3.20;3.00;;;;;;;;;;4935720;29;20461;-73
2024/01/18 07:26:45;;;;;;;5.23;3.80;;;;;;;;;;4935663;29;20427;-75
2024/01/18 07:29:11;;;;;;;5.37;3.40;;;;;;;;;;4934601;29;20985;-73
2024/01/18 07:31:37;;;;;;;5.73;3.40;;;;;;;;;;4935750;29;20498;-72
2024/01/18 07:34:02;;;;;;;7.03;4.00;;;;;;;;;;4935600;29;20425;-71
2024/01/18 07:36:28;;;;;;;6.67;4.27;;;;;;;;;;4935284;29;20730;-72
2024/01/18 07:38:54;;;;;;;5.57;3.50;;;;;;;;;;4935521;29;20409;-76
2024/01/18 07:41:20;;;;;;;9.30;4.20;;;;;;;;;;4935301;29;20513;-76
2024/01/18 07:43:46;;;;;;;7.57;3.83;;;;;;;;;;4935188;29;20499;-75
2024/01/18 07:46:12;;;;;;;6.37;4.07;;;;;;;;;;4933854;29;20432;-76
2024/01/18 07:48:38;;;;;;;4.00;3.50;;;;;;;;;;4935138;29;20422;-75
2024/01/18 07:51:04;;;;;;;4.90;3.80;;;;;;;;;;4935390;29;20443;-76
2024/01/18 07:53:30;;;;;;;6.10;3.97;;;;;;;;;;4935734;29;20945;-75
2024/01/18 07:55:56;;;;;;;7.80;4.50;;;;;;;;;;4935444;29;20449;-75
2024/01/18 07:58:22;;;;;;;6.03;4.37;;;;;;;;;;4935013;29;20413;-76
2024/01/18 08:00:50;;;;;;;6.80;4.93;;;;;;;;;;4935011;29;20440;-75
2024/01/18 08:03:16;;;;;;;7.03;4.80;;;;;;;;;;4934314;29;20469;-75
2024/01/18 08:05:42;;;;;;;6.40;4.43;;;;;;;;;;4942629;29;20763;-75
2024/01/18 08:08:08;;;;;;;5.37;4.13;;;;;;;;;;4941614;29;20827;-75
2024/01/18 08:10:34;;;;;;;11.37;5.50;;;;;;;;;;4935431;29;20768;-75
2024/01/18 08:13:01;;;;;;;11.13;4.80;;;;;;;;;;4935020;29;20477;-75
2024/01/18 08:15:27;;;;;;;7.63;4.60;;;;;;;;;;4935411;29;20417;-75
2024/01/18 08:17:53;;;;;;;7.90;5.00;;;;;;;;;;4937510;29;20441;-75
2024/01/18 08:20:19;;;;;;;6.30;4.33;;;;;;;;;;4934791;29;20869;-75
2024/01/18 08:22:45;;;;;;;7.27;4.57;;;;;;;;;;4933668;29;20501;-75
2024/01/18 08:25:12;;;;;;;5.00;4.23;;;;;;;;;;4933613;29;20567;-75
2024/01/18 08:27:39;;;;;;;11.23;4.33;;;;;;;;;;4933570;29;20425;-75
2024/01/18 08:30:05;;;;;;;7.60;4.17;;;;;;;;;;4935471;29;20496;-76
2024/01/18 08:32:34;;;;;;;6.20;4.10;;;;;;;;;;4935972;29;20846;-75
2024/01/18 08:35:00;;;;;;;7.83;5.10;;;;;;;;;;4934861;29;20418;-75
2024/01/18 08:37:26;;;;;;;7.77;4.87;;;;;;;;;;4934635;29;20418;-75
2024/01/18 08:39:52;;;;;;;8.67;4.73;;;;;;;;;;4934873;29;20458;-75
2024/01/18 08:42:18;;;;;;;10.63;4.27;;;;;;;;;;4938835;29;20825;-75
2024/01/18 08:44:45;;;;;;;9.20;4.43;;;;;;;;;;4935269;29;20482;-75
2024/01/18 08:47:14;;;;;;;8.63;3.87;;;;;;;;;;4936326;29;20457;-75
2024/01/18 08:49:40;;;;;;;6.70;4.30;;;;;;;;;;4934856;29;20790;-75
2024/01/18 08:52:07;;;;;;;5.03;3.23;;;;;;;;;;4934703;29;20430;-75
2024/01/18 08:54:33;;;;;;;7.07;3.97;;;;;;;;;;4933249;29;20449;-75
2024/01/18 08:56:59;;;;;;;5.93;3.90;;;;;;;;;;4933122;29;20429;-76
2024/01/18 08:59:25;;;;;;;5.80;3.90;;;;;;;;;;4934549;29;20418;-75
2024/01/18 09:01:51;;;;;;;7.50;5.00;;;;;;;;;;4934269;29;20453;-76
2024/01/18 09:04:17;;;;;;;7.03;4.50;;;;;;;;;;4934391;29;20465;-75
2024/01/18 09:06:43;;;;;;;8.63;4.70;;;;;;;;;;4934101;29;20422;-75
2024/01/18 09:09:09;;;;;;;9.30;5.40;;;;;;;;;;4944602;29;20406;-76
2024/01/18 09:11:36;;;;;;;7.73;4.83;;;;;;;;;;4934333;29;20442;-77
2024/01/18 09:14:02;;;;;;;8.70;5.60;;;;;;;;;;4937332;29;20987;-76
2024/01/18 09:16:28;;;;;;;5.93;4.50;;;;;;;;;;4937575;29;20442;-75
2024/01/18 09:18:54;;;;;;;8.67;5.00;;;;;;;;;;4937862;29;20936;-76
2024/01/18 09:21:20;;;;;;;7.77;4.70;;;;;;;;;;4936301;29;20444;-76
2024/01/18 09:23:46;;;;;;;9.30;5.87;;;;;;;;;;4937680;29;20569;-75
2024/01/18 09:26:12;;;;;;;8.23;5.63;;;;;;;;;;4936303;29;20918;-76
2024/01/18 09:28:38;;;;;;;7.10;4.80;;;;;;;;;;4936437;29;20428;-76
2024/01/18 09:31:04;;;;;;;8.37;4.90;;;;;;;;;;4937437;29;20426;-77
2024/01/18 09:33:30;;;;;;;5.90;4.50;;;;;;;;;;4937539;29;20414;-76
2024/01/18 09:35:55;;;;;;;12.00;4.40;;;;;;;;;;4936085;29;20413;-76
2024/01/18 09:38:21;;;;;;;7.20;4.10;;;;;;;;;;4937497;29;20880;-77
2024/01/18 09:40:48;;;;;;;8.00;4.43;;;;;;;;;;4937788;29;20437;-76
2024/01/18 09:43:17;;;;;;;8.10;5.03;;;;;;;;;;4937623;29;20508;-76
2024/01/18 09:45:47;;;;;;;6.03;3.47;;;;;;;;;;4937174;29;20416;-75
2024/01/18 09:48:14;;;;;;;5.40;4.00;;;;;;;;;;4939172;29;20401;-76
2024/01/18 09:50:43;;;;;;;6.80;3.80;;;;;;;;;;4942217;29;20932;-76
2024/01/18 09:53:09;;;;;;;5.93;3.67;;;;;;;;;;4937700;29;20429;-75
2024/01/18 09:55:35;;;;;;;5.13;3.20;;;;;;;;;;4936079;29;20426;-76
2024/01/18 09:58:03;;;;;;;4.23;3.47;;;;;;;;;;4937343;29;20413;-76
2024/01/18 10:00:31;;;;;;;3.83;3.30;;;;;;;;;;4937384;29;20417;-76
2024/01/18 10:02:58;;;;;;;4.80;3.60;;;;;;;;;;4937001;29;20430;-75
2024/01/18 10:05:25;;;;;;;2.87;2.53;;;;;;;;;;4936913;29;20452;-75
2024/01/18 10:07:51;;;;;;;5.00;2.87;;;;;;;;;;4937066;29;20414;-76
2024/01/18 10:10:18;;;;;;;8.13;3.40;;;;;;;;;;4937031;29;20763;-75
2024/01/18 10:12:47;;;;;;;3.57;3.03;;;;;;;;;;4937015;29;20448;-76
2024/01/18 10:15:28;;;;;;;5.20;3.30;;;;;;;;;;4936935;29;20905;-75
2024/01/18 10:17:54;;;;;;;6.40;4.00;;;;;;;;;;4936876;29;20417;-76
2024/01/18 10:20:23;;;;;;;7.20;3.53;;;;;;;;;;4935424;29;20516;-77
2024/01/18 10:22:49;;;;;;;5.70;3.93;;;;;;;;;;4936770;29;20496;-75
2024/01/18 10:25:15;;;;;;;5.57;3.67;;;;;;;;;;4935782;29;20899;-76
2024/01/18 10:27:42;;;;;;;3.47;3.17;;;;;;;;;;4936482;29;20516;-76
2024/01/18 10:30:08;;;;;;;4.23;3.43;;;;;;;;;;4935256;29;20508;-75
2024/01/18 10:32:37;;;;;;;3.13;2.47;;;;;;;;;;4936942;29;20780;-76
2024/01/18 10:35:03;;;;;;;2.50;2.30;;;;;;;;;;4936478;29;20422;-75
2024/01/18 10:37:29;;;;;;;3.57;2.47;;;;;;;;;;4936303;29;20418;-76
2024/01/18 10:39:55;;;;;;;6.90;2.70;;;;;;;;;;4935015;29;20792;-75
2024/01/18 10:42:22;;;;;;;4.10;2.80;;;;;;;;;;4935028;29;20964;-76
2024/01/18 10:44:52;;;;;;;3.83;2.60;;;;;;;;;;4936281;29;20824;-76
2024/01/18 10:47:18;;;;;;;3.40;3.20;;;;;;;;;;4935985;29;20890;-75
2024/01/18 10:49:45;;;;;;;5.20;3.47;;;;;;;;;;4936202;29;20414;-76
2024/01/18 10:52:11;;;;;;;3.47;2.90;;;;;;;;;;4936437;29;20918;-77
2024/01/18 10:54:38;;;;;;;3.53;2.80;;;;;;;;;;4936349;29;20422;-76
2024/01/18 10:57:04;;;;;;;5.70;3.40;;;;;;;;;;4935907;29;20976;-76
2024/01/18 10:59:30;;;;;;;6.47;4.10;;;;;;;;;;4935844;29;20906;-76
2024/01/18 11:02:00;;;;;;;4.80;3.77;;;;;;;;;;4935815;29;20996;-76
2024/01/18 11:04:30;;;;;;;6.73;4.23;;;;;;;;;;4935834;29;20501;-75
2024/01/18 11:06:58;;;;;;;5.93;4.00;;;;;;;;;;4935754;29;20418;-75
2024/01/18 11:09:29;;;;;;;5.33;3.60;;;;;;;;;;4935804;29;20410;-75
2024/01/18 11:11:56;;;;;;;5.20;3.97;;;;;;;;;;4935703;29;20510;-75
2024/01/18 11:14:23;;;;;;;10.60;6.50;;;;;;;;;;4935634;29;20414;-76
2024/01/18 11:16:49;;;;;;;8.60;4.83;;;;;;;;;;4934340;29;20432;-75
2024/01/18 11:19:38;;;;;;;6.30;4.40;;;;;;;;;;4934272;29;20417;-75
2024/01/18 11:22:04;;;;;;;4.93;3.53;;;;;;;;;;4935760;29;20821;-75
2024/01/18 11:24:30;;;;;;;5.77;3.83;;;;;;;;;;4935531;29;20953;-76
2024/01/18 11:26:58;;;;;;;4.80;3.73;;;;;;;;;;4935504;29;20433;-75
2024/01/18 11:29:26;;;;;;;6.07;3.70;;;;;;;;;;4935480;29;20416;-75
2024/01/18 11:31:52;;;;;;;7.00;3.93;;;;;;;;;;4935628;29;20437;-76
2024/01/18 11:34:31;;;;;;;3.83;2.90;;;;;;;;;;4935576;29;20418;-76
2024/01/18 11:37:13;;;;;;;5.50;3.67;;;;;;;;;;4935232;29;20417;-75
2024/01/18 11:39:48;;;;;;;8.63;5.67;;;;;;;;;;4935329;29;20553;-75
2024/01/18 11:42:18;;;;;;;5.30;4.60;;;;;;;;;;4935479;29;20441;-75
2024/01/18 11:45:03;;;;;;;8.27;5.07;;;;;;;;;;4947980;29;20482;-75
2024/01/18 11:47:30;;;;;;;7.10;4.60;;;;;;;;;;4938219;29;20413;-75
2024/01/18 11:49:56;;;;;;;6.60;4.80;;;;;;;;;;4944572;29;20438;-75
2024/01/18 11:52:23;;;;;;;7.43;5.40;;;;;;;;;;4937316;29;20529;-75
2024/01/18 11:54:55;;;;;;;7.90;5.80;;;;;;;;;;4935154;29;20418;-75
2024/01/18 11:57:21;;;;;;;4.40;4.17;;;;;;;;;;4935925;29;20414;-75
2024/01/18 11:59:47;;;;;;;9.83;5.53;;;;;;;;;;4935234;29;20440;-75
2024/01/18 12:02:14;;;;;;;7.57;4.93;;;;;;;;;;4933722;29;20969;-75
2024/01/18 12:04:40;;;;;;;7.77;4.73;;;;;;;;;;4934911;29;20843;-75
2024/01/18 12:07:08;;;;;;;6.93;4.87;;;;;;;;;;4933736;29;20446;-75
2024/01/18 12:09:34;;;;;;;10.43;6.17;;;;;;;;;;4934862;29;20413;-75
2024/01/18 12:12:01;;;;;;;10.93;5.53;;;;;;;;;;4934778;29;20798;-76
2024/01/18 12:14:27;;;;;;;8.03;5.30;;;;;;;;;;4934821;29;20965;-75
2024/01/18 12:16:54;;;;;;;9.37;6.43;;;;;;;;;;4966432;23;20865;-72
2024/01/18 12:19:32;;;;;;;7.37;5.60;;;;;;;;;;4973817;28;20437;-71
2024/01/18 12:22:01;;;;;;;8.50;6.17;;;;;;;;;;4973877;28;20424;-72
2024/01/18 12:24:27;;;;;;;10.00;6.30;;;;;;;;;;4975745;28;20559;-71
2024/01/18 12:26:56;;;;;;;10.93;5.90;;;;;;;;;;4978873;28;20428;-72
2024/01/18 12:29:23;;;;;;;10.70;6.53;;;;;;;;;;4974789;28;20424;-72
2024/01/18 12:31:49;;;;;;;13.63;7.47;;;;;;;;;;4975499;28;20412;-73
2024/01/18 12:34:17;;;;;;;14.23;8.37;;;;;;;;;;4975537;28;20424;-72
2024/01/18 12:36:43;;;;;;;15.17;8.77;;;;;;;;;;4973272;28;20432;-73
2024/01/18 12:39:09;;;;;;;14.73;8.10;;;;;;;;;;4973447;28;20440;-72
2024/01/18 12:41:35;;;;;;;14.80;9.20;;;;;;;;;;4973510;28;20412;-72
2024/01/18 12:44:07;;;;;;;13.70;8.03;;;;;;;;;;4973357;28;20467;-72
2024/01/18 12:46:35;;;;;;;15.07;10.03;;;;;;;;;;4973554;28;20443;-72
2024/01/18 12:49:01;;;;;;;16.13;10.00;;;;;;;;;;4976399;28;20503;-72
2024/01/18 12:51:28;;;;;;;15.80;8.60;;;;;;;;;;4977770;28;20496;-73
2024/01/18 12:53:54;;;;;;;15.47;9.60;;;;;;;;;;4977595;28;20903;-72
2024/01/18 12:56:20;;;;;;;13.30;7.53;;;;;;;;;;4977234;28;20451;-72
2024/01/18 12:58:47;;;;;;;14.17;8.63;;;;;;;;;;4977521;28;20420;-73
2024/01/18 13:01:27;;;;;;;12.97;8.03;;;;;;;;;;4977182;28;20499;-73
2024/01/18 13:04:08;;;;;;;17.37;8.60;;;;;;;;;;4976881;28;20982;-71
2024/01/18 13:06:34;;;;;;;16.13;8.70;;;;;;;;;;4976537;28;20419;-73
2024/01/18 13:09:01;;;;;;;15.17;8.60;;;;;;;;;;4976898;28;20498;-73
2024/01/18 13:11:27;;;;;;;13.53;8.10;;;;;;;;;;4975577;28;20828;-72
2024/01/18 13:13:53;;;;;;;13.10;8.33;;;;;;;;;;4977067;28;20767;-72
2024/01/18 13:16:22;;;;;;;14.13;8.50;;;;;;;;;;4975409;28;20423;-72
2024/01/18 13:18:48;;;;;;;16.03;8.47;;;;;;;;;;4976848;28;20415;-71
2024/01/18 13:21:14;;;;;;;16.47;8.70;;;;;;;;;;4975337;28;20787;-71
2024/01/18 13:23:40;;;;;;;14.87;8.80;;;;;;;;;;4976455;28;20475;-72
2024/01/18 13:26:06;;;;;;;15.43;9.03;;;;;;;;;;4976404;28;20412;-71
2024/01/18 13:28:32;;;;;;;18.53;10.57;;;;;;;;;;4976648;28;20431;-73
2024/01/18 13:30:58;;;;;;;17.37;10.43;;;;;;;;;;4975708;28;20422;-73
2024/01/18 13:33:24;;;;;;;16.57;9.57;;;;;;;;;;4975385;28;20799;-73
2024/01/18 13:35:50;;;;;;;19.60;10.83;;;;;;;;;;4977366;28;20477;-72
2024/01/18 13:38:16;;;;;;;20.07;10.77;;;;;;;;;;4975765;28;20466;-73
2024/01/18 13:40:42;;;;;;;18.37;10.30;;;;;;;;;;4976646;28;20416;-73
2024/01/18 13:43:08;;;;;;;19.77;9.40;;;;;;;;;;4976333;28;20427;-73
2024/01/18 13:45:34;;;;;;;16.43;10.27;;;;;;;;;;4976081;28;20400;-73
2024/01/18 13:48:00;;;;;;;23.30;9.87;;;;;;;;;;4976250;28;20443;-73
2024/01/18 13:50:26;;;;;;;20.53;10.90;;;;;;;;;;4976287;28;20490;-73
2024/01/18 13:52:52;;;;;;;29.00;11.20;;;;;;;;;;4976121;28;20418;-73
2024/01/18 13:55:18;;;;;;;19.00;10.17;;;;;;;;;;4974992;28;20999;-72
2024/01/18 13:57:44;;;;;;;21.40;12.27;;;;;;;;;;4974668;28;20444;-73
2024/01/18 14:00:11;;;;;;;16.60;9.90;;;;;;;;;;4974888;28;20468;-71
2024/01/18 14:02:37;;;;;;;17.17;9.20;;;;;;;;;;4976304;28;20944;-71
2024/01/18 14:05:03;;;;;;;18.97;10.63;;;;;;;;;;4976508;28;20578;-73
2024/01/18 14:07:29;;;;;;;22.23;12.60;;;;;;;;;;4978428;28;20465;-72
2024/01/18 14:09:55;;;;;;;21.53;11.63;;;;;;;;;;4987988;28;20419;-72
2024/01/18 14:12:21;;;;;;;20.50;11.17;;;;;;;;;;4989818;28;20422;-74
2024/01/18 14:14:47;;;;;;;23.37;10.73;;;;;;;;;;4989843;28;20420;-73
2024/01/18 14:17:13;;;;;;;22.30;12.70;;;;;;;;;;4979316;28;20475;-73
2024/01/18 14:19:39;;;;;;;23.63;11.90;;;;;;;;;;4975849;28;20547;-72
2024/01/18 14:22:05;;;;;;;25.07;11.70;;;;;;;;;;4977036;28;20420;-72
2024/01/18 14:24:33;;;;;;;26.93;12.50;;;;;;;;;;4977580;28;20459;-72
2024/01/18 14:26:59;;;;;;;19.63;10.90;;;;;;;;;;4979860;28;20431;-73
2024/01/18 14:29:25;;;;;;;23.00;12.10;;;;;;;;;;4977934;28;20403;-73
2024/01/18 14:31:51;;;;;;;27.97;14.43;;;;;;;;;;4977398;28;20420;-73
2024/01/18 14:34:17;;;;;;;24.70;12.43;;;;;;;;;;4980134;28;20511;-73
2024/01/18 14:36:43;;;;;;;22.93;10.87;;;;;;;;;;4978404;28;20481;-73
2024/01/18 14:39:09;;;;;;;30.27;15.30;;;;;;;;;;4978147;28;20412;-73
2024/01/18 14:41:35;;;;;;;29.20;13.37;;;;;;;;;;4977420;28;20412;-73
2024/01/18 14:44:00;;;;;;;24.10;13.50;;;;;;;;;;4977422;28;20460;-73
2024/01/18 14:46:26;;;;;;;29.23;13.33;;;;;;;;;;4976747;28;20422;-74
2024/01/18 14:48:52;;;;;;;29.97;13.90;;;;;;;;;;4977497;28;20469;-73
2024/01/18 14:51:19;;;;;;;29.00;11.87;;;;;;;;;;4975599;28;20453;-73
2024/01/18 14:53:45;;;;;;;25.30;12.40;;;;;;;;;;4976796;28;20416;-74
2024/01/18 14:56:11;;;;;;;22.00;11.47;;;;;;;;;;4975303;28;20408;-73
2024/01/18 14:58:37;;;;;;;28.10;13.60;;;;;;;;;;4974720;28;20444;-73
2024/01/18 15:01:03;;;;;;;31.80;13.20;;;;;;;;;;4975374;28;20423;-73
2024/01/18 15:03:29;;;;;;;27.90;14.73;;;;;;;;;;4977301;28;20471;-74
2024/01/18 15:05:55;;;;;;;26.80;13.60;;;;;;;;;;4978433;28;20463;-73
2024/01/18 15:08:21;;;;;;;31.37;15.07;;;;;;;;;;4976331;28;20498;-73
2024/01/18 15:10:47;;;;;;;28.00;13.10;;;;;;;;;;4975027;28;20951;-73
2024/01/18 15:13:14;;;;;;;26.93;11.93;;;;;;;;;;4976118;28;20408;-74
2024/01/18 15:15:40;;;;;;;27.47;12.00;;;;;;;;;;4975754;28;20412;-74
2024/01/18 15:18:08;;;;;;;30.07;12.80;;;;;;;;;;4975508;28;20462;-73
2024/01/18 15:20:34;;;;;;;28.07;13.17;;;;;;;;;;4975250;28;20423;-72
2024/01/18 15:23:00;;;;;;;26.47;13.90;;;;;;;;;;4975352;28;20411;-74
2024/01/18 15:25:26;;;;;;;35.83;15.60;;;;;;;;;;4975103;28;20465;-74
2024/01/18 15:27:52;;;;;;;26.70;12.87;;;;;;;;;;4975144;28;20858;-74
2024/01/18 15:30:18;;;;;;;25.40;12.60;;;;;;;;;;4973670;28;20924;-73
2024/01/18 15:32:44;;;;;;;33.67;15.93;;;;;;;;;;4974940;28;20446;-73
2024/01/18 15:35:10;;;;;;;29.40;14.00;;;;;;;;;;4974933;28;20418;-73
2024/01/18 15:37:36;;;;;;;32.87;13.37;;;;;;;;;;4974628;28;20954;-74
2024/01/18 15:40:03;;;;;;;31.10;14.97;;;;;;;;;;4974884;28;20408;-73
2024/01/18 15:42:30;;;;;;;30.40;14.17;;;;;;;;;;4974631;28;20411;-73
2024/01/18 15:44:56;;;;;;;32.17;13.67;;;;;;;;;;4974966;28;20455;-74
2024/01/18 15:47:22;;;;;;;33.10;15.27;;;;;;;;;;4975253;28;20428;-73
2024/01/18 15:49:48;;;;;;;31.27;14.70;;;;;;;;;;4978579;28;20439;-72
2024/01/18 15:52:14;;;;;;;31.00;14.87;;;;;;;;;;4974517;28;20600;-74
2024/01/18 15:54:40;;;;;;;28.00;14.13;;;;;;;;;;4974309;28;20929;-74
2024/01/18 15:57:06;;;;;;;33.10;15.30;;;;;;;;;;4974032;28;20427;-74
2024/01/18 15:59:32;;;;;;;30.60;14.13;;;;;;;;;;4972884;28;20424;-73
2024/01/18 16:01:58;;;;;;;33.80;13.80;;;;;;;;;;4973352;28;20822;-74
2024/01/18 16:04:24;;;;;;;31.30;14.83;;;;;;;;;;4974020;28;20621;-74
2024/01/18 16:06:50;;;;;;;31.50;14.67;;;;;;;;;;4973004;28;20951;-73
2024/01/18 16:09:16;;;;;;;27.20;15.70;;;;;;;;;;4974209;28;20412;-73
2024/01/18 16:11:42;;;;;;;31.27;15.03;;;;;;;;;;4974217;28;20412;-74
2024/01/18 16:14:08;;;;;;;28.63;14.97;;;;;;;;;;4973821;28;20772;-72
2024/01/18 16:16:35;;;;;;;46.93;16.23;;;;;;;;;;4973559;28;20412;-74
2024/01/18 16:19:01;;;;;;;28.03;13.30;;;;;;;;;;4973934;28;20408;-74
2024/01/18 16:21:26;;;;;;;32.93;14.97;;;;;;;;;;4975333;28;20474;-72
2024/01/18 16:23:53;;;;;;;33.33;13.80;;;;;;;;;;4975099;28;20459;-73
2024/01/18 16:26:19;;;;;;;32.07;15.40;;;;;;;;;;4977503;28;20415;-72
2024/01/18 16:28:45;;;;;;;27.87;15.10;;;;;;;;;;4976311;28;20408;-73
2024/01/18 16:31:11;;;;;;;32.03;13.40;;;;;;;;;;4979347;28;20416;-71
2024/01/18 16:33:37;;;;;;;33.73;14.50;;;;;;;;;;4989193;28;20899;-71
2024/01/18 16:36:03;;;;;;;36.77;14.93;;;;;;;;;;4989702;28;20427;-72
2024/01/18 16:38:29;;;;;;;29.20;14.30;;;;;;;;;;4987007;28;20439;-72
2024/01/18 16:40:56;;;;;;;28.40;12.93;;;;;;;;;;4984444;28;20490;-73
2024/01/18 16:43:22;;;;;;;31.53;13.80;;;;;;;;;;4988257;28;20475;-74
2024/01/18 16:45:48;;;;;;;39.53;16.10;;;;;;;;;;4989271;28;20412;-74
2024/01/18 16:48:14;;;;;;;33.23;14.60;;;;;;;;;;4984744;28;20439;-73
2024/01/18 16:50:40;;;;;;;26.07;14.40;;;;;;;;;;4974956;28;20551;-73
2024/01/18 16:53:07;;;;;;;30.10;13.03;;;;;;;;;;4974555;28;20831;-72
2024/01/18 16:55:34;;;;;;;25.90;12.33;;;;;;;;;;4974242;28;20424;-72
2024/01/18 16:58:00;;;;;;;28.00;13.60;;;;;;;;;;4973782;28;20910;-72
2024/01/18 17:00:27;;;;;;;38.23;14.40;;;;;;;;;;4973379;28;20418;-73
2024/01/18 17:02:53;;;;;;;30.87;13.83;;;;;;;;;;4973753;28;20412;-72
2024/01/18 17:05:19;;;;;;;40.13;16.23;;;;;;;;;;4973505;28;20463;-75
2024/01/18 17:07:45;;;;;;;33.03;14.20;;;;;;;;;;4973834;28;20600;-73
2024/01/18 17:10:12;;;;;;;31.73;16.87;;;;;;;;;;4973824;28;21015;-72
2024/01/18 17:12:38;;;;;;;28.63;13.30;;;;;;;;;;4974172;28;20479;-72
2024/01/18 17:15:04;;;;;;;30.00;14.27;;;;;;;;;;4973731;28;20899;-72
2024/01/18 17:17:30;;;;;;;31.93;13.90;;;;;;;;;;4973520;28;20980;-72
2024/01/18 17:19:57;;;;;;;32.60;13.80;;;;;;;;;;4973787;28;20508;-72
2024/01/18 17:22:23;;;;;;;33.53;14.20;;;;;;;;;;4972200;28;20424;-72
2024/01/18 17:24:49;;;;;;;31.90;14.47;;;;;;;;;;4971982;28;20467;-72
2024/01/18 17:27:15;;;;;;;34.93;14.90;;;;;;;;;;4973408;28;20803;-73
2024/01/18 17:29:43;;;;;;;39.30;12.97;;;;;;;;;;4974198;28;20411;-73
2024/01/18 17:32:09;;;;;;;34.53;14.17;;;;;;;;;;4976373;28;20542;-74
2024/01/18 17:34:35;;;;;;;32.20;13.80;;;;;;;;;;4975046;28;20412;-74
2024/01/18 17:37:03;;;;;;;30.07;13.37;;;;;;;;;;4979188;28;20492;-73
2024/01/18 17:39:29;;;;;;;31.80;14.63;;;;;;;;;;4980806;28;20438;-73
2024/01/18 17:41:55;;;;;;;35.33;14.10;;;;;;;;;;4979593;28;20922;-72
2024/01/18 17:44:22;;;;;;;31.87;14.23;;;;;;;;;;4977225;28;20569;-72
2024/01/18 17:46:51;;;;;;;30.83;14.13;;;;;;;;;;4977182;28;20427;-72
2024/01/18 17:49:17;;;;;;;30.13;12.60;;;;;;;;;;4988857;28;20413;-74
2024/01/18 17:51:43;;;;;;;27.10;13.23;;;;;;;;;;4993569;28;20404;-80
2024/01/18 17:54:09;;;;;;;33.37;14.93;;;;;;;;;;4994532;28;20432;-78
2024/01/18 17:56:35;;;;;;;26.10;12.03;;;;;;;;;;4995419;28;20424;-76
2024/01/18 17:59:01;;;;;;;24.33;12.73;;;;;;;;;;4994663;28;20426;-76
2024/01/18 18:01:27;;;;;;;29.23;12.33;;;;;;;;;;4987178;28;20443;-78
2024/01/18 18:03:53;;;;;;;36.73;12.43;;;;;;;;;;4984450;28;20460;-76
2024/01/18 18:06:19;;;;;;;33.77;13.43;;;;;;;;;;4977550;28;20422;-78
2024/01/18 18:08:45;;;;;;;25.47;11.00;;;;;;;;;;4963097;28;20421;-77
2024/01/18 18:11:13;;;;;;;28.73;13.77;;;;;;;;;;4975918;28;20420;-75
2024/01/18 18:13:39;;;;;;;27.83;12.83;;;;;;;;;;4976264;28;20846;-75
2024/01/18 18:16:06;;;;;;;34.47;12.50;;;;;;;;;;4977658;28;20427;-75
2024/01/18 18:18:32;;;;;;;30.90;12.33;;;;;;;;;;4997247;23;20630;-72
2024/01/18 18:20:58;;;;;;;23.80;12.30;;;;;;;;;;4974513;28;20486;-73
2024/01/18 18:23:24;;;;;;;28.47;13.30;;;;;;;;;;4974227;28;21002;-73
2024/01/18 18:25:50;;;;;;;34.37;13.43;;;;;;;;;;4975594;28;20443;-74
2024/01/18 18:28:16;;;;;;;34.90;16.80;;;;;;;;;;4975513;28;20439;-73
2024/01/18 18:30:44;;;;;;;30.13;14.23;;;;;;;;;;4975586;28;20519;-73
2024/01/18 18:33:11;;;;;;;30.03;13.80;;;;;;;;;;4974194;28;20435;-72
2024/01/18 18:35:37;;;;;;;30.23;13.90;;;;;;;;;;4975182;28;20418;-74
2024/01/18 18:38:03;;;;;;;30.13;13.53;;;;;;;;;;4973908;28;20447;-74
2024/01/18 18:40:31;;;;;;;47.97;16.80;;;;;;;;;;4975021;28;20975;-73
2024/01/18 18:42:56;;;;;;;36.80;13.97;;;;;;;;;;4975125;28;20420;-74
2024/01/18 18:45:22;;;;;;;37.70;15.53;;;;;;;;;;4974370;28;20507;-73
2024/01/18 18:47:48;;;;;;;36.53;17.20;;;;;;;;;;4974594;28;20443;-73
2024/01/18 18:50:14;;;;;;;35.77;17.20;;;;;;;;;;4974794;28;20502;-73
2024/01/18 18:52:40;;;;;;;52.00;18.97;;;;;;;;;;4974776;28;20751;-74
2024/01/18 18:55:06;;;;;;;50.73;19.47;;;;;;;;;;4974746;28;20418;-74
2024/01/18 18:57:32;;;;;;;39.13;18.47;;;;;;;;;;4974394;28;20467;-74
2024/01/18 18:59:58;;;;;;;53.57;20.70;;;;;;;;;;4974768;28;20463;-73
2024/01/18 19:02:24;;;;;;;54.63;20.63;;;;;;;;;;4974783;28;20759;-73
2024/01/18 19:04:50;;;;;;;47.40;18.97;;;;;;;;;;4973162;28;20465;-73
2024/01/18 19:07:17;;;;;;;42.93;19.20;;;;;;;;;;4974639;28;20458;-73
2024/01/18 19:09:43;;;;;;;50.70;20.37;;;;;;;;;;4974798;28;20407;-73
2024/01/18 19:12:09;;;;;;;55.40;20.20;;;;;;;;;;4974890;28;20415;-73
2024/01/18 19:14:35;;;;;;;52.40;22.07;;;;;;;;;;4974701;28;20414;-73
2024/01/18 19:17:01;;;;;;;47.13;20.00;;;;;;;;;;4974481;28;20793;-73
2024/01/18 19:19:26;;;;;;;50.27;21.07;;;;;;;;;;4974893;28;20839;-73
2024/01/18 19:21:52;;;;;;;53.50;20.23;;;;;;;;;;4973203;28;20577;-73
2024/01/18 19:24:20;;;;;;;50.80;21.37;;;;;;;;;;4974648;28;20480;-73
2024/01/18 19:26:46;;;;;;;55.13;21.43;;;;;;;;;;4974476;28;20415;-73
2024/01/18 19:29:12;;;;;;;51.33;20.53;;;;;;;;;;4973344;28;20807;-73
2024/01/18 19:31:39;;;;;;;56.73;21.07;;;;;;;;;;4974311;28;20934;-73
2024/01/18 19:34:05;;;;;;;50.13;19.90;;;;;;;;;;4974252;28;20424;-74
2024/01/18 19:36:31;;;;;;;53.80;21.03;;;;;;;;;;4974027;28;20421;-74
2024/01/18 19:38:57;;;;;;;55.70;21.30;;;;;;;;;;4974168;28;20506;-74
2024/01/18 19:41:25;;;;;;;51.90;20.87;;;;;;;;;;4973295;28;20427;-74
2024/01/18 19:43:51;;;;;;;62.97;23.00;;;;;;;;;;4975118;28;20458;-74
2024/01/18 19:46:17;;;;;;;51.47;21.60;;;;;;;;;;4974032;28;21014;-74
2024/01/18 19:48:43;;;;;;;59.47;21.23;;;;;;;;;;4974907;28;20464;-74
2024/01/18 19:51:09;;;;;;;53.60;21.87;;;;;;;;;;4975781;28;20822;-74
2024/01/18 19:53:35;;;;;;;64.17;25.33;;;;;;;;;;4974891;28;20411;-74
2024/01/18 19:56:01;;;;;;;56.03;21.07;;;;;;;;;;4973997;28;20425;-74
2024/01/18 19:58:27;;;;;;;57.50;21.83;;;;;;;;;;4973122;28;20451;-74
2024/01/18 20:00:54;;;;;;;48.77;19.63;;;;;;;;;;4974285;28;20427;-74
2024/01/18 20:03:20;;;;;;;52.27;19.60;;;;;;;;;;4974951;28;20475;-74
2024/01/18 20:05:46;;;;;;;71.70;20.07;;;;;;;;;;4973717;28;20428;-75
2024/01/18 20:08:12;;;;;;;54.93;20.07;;;;;;;;;;4973665;28;20443;-74
2024/01/18 20:10:38;;;;;;;48.97;19.30;;;;;;;;;;4973704;28;20420;-77
2024/01/18 20:13:04;;;;;;;43.57;19.13;;;;;;;;;;4973810;28;20408;-74
2024/01/18 20:15:30;;;;;;;42.67;18.33;;;;;;;;;;4973482;28;20466;-76
2024/01/18 20:17:56;;;;;;;57.43;19.80;;;;;;;;;;4973316;28;20459;-75
2024/01/18 20:20:22;;;;;;;52.20;20.77;;;;;;;;;;4973504;28;20427;-75
2024/01/18 20:22:48;;;;;;;51.77;20.53;;;;;;;;;;4973721;28;20425;-76
2024/01/18 20:25:14;;;;;;;44.20;18.73;;;;;;;;;;4973471;28;20471;-75
2024/01/18 20:27:41;;;;;;;59.33;20.10;;;;;;;;;;4973244;28;20444;-75